Vikentios Damodos — SVA3808 — position and weather

sailwx.info

Track history (hours):
 
Tides and Currents Weather Stations Pressure Air Temp Water Temp Dewpoint Dewpoint Depression Visibility Wind Speed Wind Dir Waves Ship Positions

Vikentios Damodos

Last reported at 2017-Dec-04 10:30 UTC. Time now 2018-Feb-23 22:37 UTC.
Position N 37°57' E 023°32'.
Warning: this ship's position is months out of date.

Length 47 m.

Type: Passenger vessel. MMSI: 239692500.

Date/timePositionNaut miles runAvg speedWind from/ knotsBaromVisibWave heightAir tempDewpointWater temp
2017-Dec-04 10:30N 37°57' E 023°32'0 0.0
2017-Dec-04 10:00N 37°57' E 023°32'0 0.0
2017-Dec-04 09:30N 37°57' E 023°32'0 0.0
2017-Dec-04 09:00N 37°57' E 023°32'0 0.0
2017-Dec-04 08:30N 37°57' E 023°32'0 0.0
2017-Dec-04 08:00N 37°57' E 023°32'0 0.0
2017-Dec-04 07:30N 37°57' E 023°32'0 0.0
2017-Dec-02 10:50N 37°57' E 023°32'0 0.0
2017-Dec-02 10:30N 37°57' E 023°32'0 0.0
2017-Dec-02 10:00N 37°57' E 023°32'0 0.0
2017-Dec-02 09:31N 37°57' E 023°32'0 0.0
2017-Dec-02 09:00N 37°57' E 023°32'0 0.0
2017-Dec-02 08:30N 37°57' E 023°32'0 0.0
2017-Dec-02 08:01N 37°57' E 023°32'0 0.0
2017-Nov-30 12:22N 37°57' E 023°32'0 0.0
2017-Nov-30 12:00N 37°57' E 023°32'0 0.0
2017-Nov-30 11:30N 37°57' E 023°32'0 0.0
2017-Nov-30 11:00N 37°57' E 023°32'0 0.0
2017-Nov-30 10:30N 37°57' E 023°32'0 0.0
2017-Nov-30 10:00N 37°57' E 023°32'0 0.0
2017-Nov-30 09:30N 37°57' E 023°32'0 0.0
2017-Nov-30 09:00N 37°57' E 023°32'0 0.0
2017-Nov-30 08:30N 37°57' E 023°32'0 0.0
2017-Nov-30 08:00N 37°57' E 023°32'0 0.0
2017-Nov-30 07:30N 37°57' E 023°32'0 0.0
2017-Nov-29 10:55N 37°57' E 023°32'0 0.0
2017-Nov-29 10:31N 37°57' E 023°32'0 0.0
2017-Nov-29 10:00N 37°57' E 023°32'3 5.2
2017-Nov-29 09:30N 37°56' E 023°35'5 9.1
2017-Nov-29 09:01N 37°51' E 023°33'1 2.0
2017-Nov-29 08:31N 37°50' E 023°33'4 8.8
2017-Nov-29 08:00N 37°55' E 023°34'3 5.2
2017-Nov-29 07:30N 37°57' E 023°33'0 0.0
2017-Nov-28 16:37N 37°57' E 023°33'0 0.0
2017-Nov-28 16:30N 37°57' E 023°33'0 0.0
2017-Nov-28 16:00N 37°57' E 023°33'0 0.0
2017-Nov-28 15:00N 37°57' E 023°33'0 0.0
2017-Nov-28 14:30N 37°57' E 023°33'0 0.0
2017-Nov-28 14:00N 37°57' E 023°33'0 0.0
2017-Nov-28 13:31N 37°57' E 023°33'0 0.0
2017-Nov-28 13:01N 37°57' E 023°33'0 0.0
2017-Nov-28 12:30N 37°57' E 023°33'0 0.0
2017-Nov-28 12:00N 37°57' E 023°33'0 0.0
2017-Nov-28 11:30N 37°57' E 023°33'0 0.0
2017-Nov-28 11:00N 37°57' E 023°33'0 0.0
2017-Nov-28 10:30N 37°57' E 023°33'0 0.0
2017-Nov-28 10:00N 37°57' E 023°33'0 0.0
2017-Nov-28 09:31N 37°57' E 023°33'0 0.0
2017-Nov-28 09:01N 37°57' E 023°33'0 0.0
2017-Nov-28 08:31N 37°57' E 023°33'0 0.0
2017-Nov-27 10:43N 37°57' E 023°33'0 0.0
2017-Nov-27 10:30N 37°57' E 023°33'0 0.0
2017-Nov-27 10:00N 37°57' E 023°33'0 0.0
2017-Nov-27 09:30N 37°57' E 023°33'0 0.0
2017-Nov-27 09:00N 37°57' E 023°33'0 0.0
2017-Nov-27 08:30N 37°57' E 023°33'0 0.0
2017-Nov-27 08:00N 37°57' E 023°33'0 0.0
2017-Nov-27 07:30N 37°57' E 023°33'0 0.0
2017-Nov-27 07:00N 37°57' E 023°33'0 0.0
2017-Nov-25 14:20N 37°57' E 023°33'0 0.0
2017-Nov-25 14:01N 37°57' E 023°33'0 0.0
2017-Nov-25 13:31N 37°57' E 023°33'0 0.0
2017-Nov-25 13:01N 37°57' E 023°33'0 0.0
2017-Nov-25 12:31N 37°57' E 023°33'0 0.0
2017-Nov-25 12:01N 37°57' E 023°33'0 0.0
2017-Nov-25 11:31N 37°57' E 023°33'0 0.0
2017-Nov-25 11:01N 37°57' E 023°33'0 0.0
2017-Nov-25 10:31N 37°57' E 023°33'0 0.0
2017-Nov-25 10:01N 37°57' E 023°33'0 0.0
2017-Nov-25 09:31N 37°57' E 023°33'0 0.0
2017-Nov-25 09:01N 37°57' E 023°33'0 0.0
2017-Nov-25 08:31N 37°57' E 023°33'0 0.0
2017-Nov-25 08:01N 37°57' E 023°33'0 0.0
2017-Nov-25 07:31N 37°57' E 023°33'0 0.0
2017-Nov-25 07:01N 37°57' E 023°33'0 0.0
2017-Nov-25 06:31N 37°57' E 023°33'0 0.0
2017-Nov-25 06:00N 37°57' E 023°33'0 0.0
2017-Nov-25 05:30N 37°57' E 023°33'0 0.0
2017-Nov-25 05:01N 37°57' E 023°33'0 0.0
2017-Nov-25 04:31N 37°57' E 023°33'0 0.0
2017-Nov-25 04:01N 37°57' E 023°33'0 0.0
2017-Nov-25 03:31N 37°57' E 023°33'0 0.0
2017-Nov-25 03:01N 37°57' E 023°33'0 0.0
2017-Nov-25 02:30N 37°57' E 023°33'0 0.0
2017-Nov-25 02:01N 37°57' E 023°33'0 0.0
2017-Nov-25 01:31N 37°57' E 023°33'0 0.0
2017-Nov-25 01:01N 37°57' E 023°33'0 0.0
2017-Nov-25 00:31N 37°57' E 023°33'0 0.0
2017-Nov-25 00:00N 37°57' E 023°33'0 0.0
2017-Nov-24 23:31N 37°57' E 023°33'0 0.0
2017-Nov-24 23:01N 37°57' E 023°33'0 0.0
2017-Nov-24 22:31N 37°57' E 023°33'0 0.0
2017-Nov-24 22:01N 37°57' E 023°33'0 0.0
2017-Nov-24 21:30N 37°57' E 023°33'0 0.0
2017-Nov-24 21:00N 37°57' E 023°33'0 0.0
2017-Nov-24 20:30N 37°57' E 023°33'0 0.0
2017-Nov-24 20:01N 37°57' E 023°33'0 0.0
2017-Nov-24 19:31N 37°57' E 023°33'0 0.0
2017-Nov-24 19:00N 37°57' E 023°33'0 0.0
2017-Nov-24 18:31N 37°57' E 023°33'0 0.0
2017-Nov-24 18:01N 37°57' E 023°33'0 0.0
2017-Nov-24 17:31N 37°57' E 023°33'0 0.0
2017-Nov-24 17:00N 37°57' E 023°33'0 0.0
2017-Nov-24 16:30N 37°57' E 023°33'0 0.0
2017-Nov-24 16:01N 37°57' E 023°33'0 0.0
2017-Nov-24 15:31N 37°57' E 023°33'0 0.0
2017-Nov-24 15:00N 37°57' E 023°33'0 0.0
2017-Nov-24 14:31N 37°57' E 023°33'0 0.0
2017-Nov-24 14:00N 37°57' E 023°33'0 0.0
2017-Nov-24 13:31N 37°57' E 023°33'0 0.0
2017-Nov-24 13:01N 37°57' E 023°33'0 0.0
2017-Nov-24 12:31N 37°57' E 023°33'0 0.0
2017-Nov-24 12:01N 37°57' E 023°33'0 0.0
2017-Nov-24 11:31N 37°57' E 023°33'0 0.0
2017-Nov-24 11:00N 37°57' E 023°33'0 0.0
2017-Nov-24 10:31N 37°57' E 023°33'  
Track history (hours):
 
Tides and Currents Weather Stations Pressure Air Temp Water Temp Dewpoint Dewpoint Depression Visibility Wind Speed Wind Dir Waves Ship Positions

Vikentios Damodos

Last reported at 2017-Dec-04 10:30 UTC. Time now 2018-Feb-23 22:37 UTC.
Position N 37°57' E 023°32'.
Warning: this ship's position is months out of date.

Length 47 m.

Type: Passenger vessel. MMSI: 239692500.

Date/timePositionNaut miles runAvg speedWind from/ knotsBaromVisibWave heightAir tempDewpointWater temp
2017-Dec-04 10:30N 37°57' E 023°32'0 0.0
2017-Dec-04 10:00N 37°57' E 023°32'0 0.0
2017-Dec-04 09:30N 37°57' E 023°32'0 0.0
2017-Dec-04 09:00N 37°57' E 023°32'0 0.0
2017-Dec-04 08:30N 37°57' E 023°32'0 0.0
2017-Dec-04 08:00N 37°57' E 023°32'0 0.0
2017-Dec-04 07:30N 37°57' E 023°32'0 0.0
2017-Dec-02 10:50N 37°57' E 023°32'0 0.0
2017-Dec-02 10:30N 37°57' E 023°32'0 0.0
2017-Dec-02 10:00N 37°57' E 023°32'0 0.0
2017-Dec-02 09:31N 37°57' E 023°32'0 0.0
2017-Dec-02 09:00N 37°57' E 023°32'0 0.0
2017-Dec-02 08:30N 37°57' E 023°32'0 0.0
2017-Dec-02 08:01N 37°57' E 023°32'0 0.0
2017-Nov-30 12:22N 37°57' E 023°32'0 0.0
2017-Nov-30 12:00N 37°57' E 023°32'0 0.0
2017-Nov-30 11:30N 37°57' E 023°32'0 0.0
2017-Nov-30 11:00N 37°57' E 023°32'0 0.0
2017-Nov-30 10:30N 37°57' E 023°32'0 0.0
2017-Nov-30 10:00N 37°57' E 023°32'0 0.0
2017-Nov-30 09:30N 37°57' E 023°32'0 0.0
2017-Nov-30 09:00N 37°57' E 023°32'0 0.0
2017-Nov-30 08:30N 37°57' E 023°32'0 0.0
2017-Nov-30 08:00N 37°57' E 023°32'0 0.0
2017-Nov-30 07:30N 37°57' E 023°32'0 0.0
2017-Nov-29 10:55N 37°57' E 023°32'0 0.0
2017-Nov-29 10:31N 37°57' E 023°32'0 0.0
2017-Nov-29 10:00N 37°57' E 023°32'3 5.2
2017-Nov-29 09:30N 37°56' E 023°35'5 9.1
2017-Nov-29 09:01N 37°51' E 023°33'1 2.0
2017-Nov-29 08:31N 37°50' E 023°33'4 8.8
2017-Nov-29 08:00N 37°55' E 023°34'3 5.2
2017-Nov-29 07:30N 37°57' E 023°33'0 0.0
2017-Nov-28 16:37N 37°57' E 023°33'0 0.0
2017-Nov-28 16:30N 37°57' E 023°33'0 0.0
2017-Nov-28 16:00N 37°57' E 023°33'0 0.0
2017-Nov-28 15:00N 37°57' E 023°33'0 0.0
2017-Nov-28 14:30N 37°57' E 023°33'0 0.0
2017-Nov-28 14:00N 37°57' E 023°33'0 0.0
2017-Nov-28 13:31N 37°57' E 023°33'0 0.0
2017-Nov-28 13:01N 37°57' E 023°33'0 0.0
2017-Nov-28 12:30N 37°57' E 023°33'0 0.0
2017-Nov-28 12:00N 37°57' E 023°33'0 0.0
2017-Nov-28 11:30N 37°57' E 023°33'0 0.0
2017-Nov-28 11:00N 37°57' E 023°33'0 0.0
2017-Nov-28 10:30N 37°57' E 023°33'0 0.0
2017-Nov-28 10:00N 37°57' E 023°33'0 0.0
2017-Nov-28 09:31N 37°57' E 023°33'0 0.0
2017-Nov-28 09:01N 37°57' E 023°33'0 0.0
2017-Nov-28 08:31N 37°57' E 023°33'0 0.0
2017-Nov-27 10:43N 37°57' E 023°33'0 0.0
2017-Nov-27 10:30N 37°57' E 023°33'0 0.0
2017-Nov-27 10:00N 37°57' E 023°33'0 0.0
2017-Nov-27 09:30N 37°57' E 023°33'0 0.0
2017-Nov-27 09:00N 37°57' E 023°33'0 0.0
2017-Nov-27 08:30N 37°57' E 023°33'0 0.0
2017-Nov-27 08:00N 37°57' E 023°33'0 0.0
2017-Nov-27 07:30N 37°57' E 023°33'0 0.0
2017-Nov-27 07:00N 37°57' E 023°33'0 0.0
2017-Nov-25 14:20N 37°57' E 023°33'0 0.0
2017-Nov-25 14:01N 37°57' E 023°33'0 0.0
2017-Nov-25 13:31N 37°57' E 023°33'0 0.0
2017-Nov-25 13:01N 37°57' E 023°33'0 0.0
2017-Nov-25 12:31N 37°57' E 023°33'0 0.0
2017-Nov-25 12:01N 37°57' E 023°33'0 0.0
2017-Nov-25 11:31N 37°57' E 023°33'0 0.0
2017-Nov-25 11:01N 37°57' E 023°33'0 0.0
2017-Nov-25 10:31N 37°57' E 023°33'0 0.0
2017-Nov-25 10:01N 37°57' E 023°33'0 0.0
2017-Nov-25 09:31N 37°57' E 023°33'0 0.0
2017-Nov-25 09:01N 37°57' E 023°33'0 0.0
2017-Nov-25 08:31N 37°57' E 023°33'0 0.0
2017-Nov-25 08:01N 37°57' E 023°33'0 0.0
2017-Nov-25 07:31N 37°57' E 023°33'0 0.0
2017-Nov-25 07:01N 37°57' E 023°33'0 0.0
2017-Nov-25 06:31N 37°57' E 023°33'0 0.0
2017-Nov-25 06:00N 37°57' E 023°33'0 0.0
2017-Nov-25 05:30N 37°57' E 023°33'0 0.0
2017-Nov-25 05:01N 37°57' E 023°33'0 0.0
2017-Nov-25 04:31N 37°57' E 023°33'0 0.0
2017-Nov-25 04:01N 37°57' E 023°33'0 0.0
2017-Nov-25 03:31N 37°57' E 023°33'0 0.0
2017-Nov-25 03:01N 37°57' E 023°33'0 0.0
2017-Nov-25 02:30N 37°57' E 023°33'0 0.0
2017-Nov-25 02:01N 37°57' E 023°33'0 0.0
2017-Nov-25 01:31N 37°57' E 023°33'0 0.0
2017-Nov-25 01:01N 37°57' E 023°33'0 0.0
2017-Nov-25 00:31N 37°57' E 023°33'0 0.0
2017-Nov-25 00:00N 37°57' E 023°33'0 0.0
2017-Nov-24 23:31N 37°57' E 023°33'0 0.0
2017-Nov-24 23:01N 37°57' E 023°33'0 0.0
2017-Nov-24 22:31N 37°57' E 023°33'0 0.0
2017-Nov-24 22:01N 37°57' E 023°33'0 0.0
2017-Nov-24 21:30N 37°57' E 023°33'0 0.0
2017-Nov-24 21:00N 37°57' E 023°33'0 0.0
2017-Nov-24 20:30N 37°57' E 023°33'0 0.0
2017-Nov-24 20:01N 37°57' E 023°33'0 0.0
2017-Nov-24 19:31N 37°57' E 023°33'0 0.0
2017-Nov-24 19:00N 37°57' E 023°33'0 0.0
2017-Nov-24 18:31N 37°57' E 023°33'0 0.0
2017-Nov-24 18:01N 37°57' E 023°33'0 0.0
2017-Nov-24 17:31N 37°57' E 023°33'0 0.0
2017-Nov-24 17:00N 37°57' E 023°33'0 0.0
2017-Nov-24 16:30N 37°57' E 023°33'0 0.0
2017-Nov-24 16:01N 37°57' E 023°33'0 0.0
2017-Nov-24 15:31N 37°57' E 023°33'0 0.0
2017-Nov-24 15:00N 37°57' E 023°33'0 0.0
2017-Nov-24 14:31N 37°57' E 023°33'0 0.0
2017-Nov-24 14:00N 37°57' E 023°33'0 0.0
2017-Nov-24 13:31N 37°57' E 023°33'0 0.0
2017-Nov-24 13:01N 37°57' E 023°33'0 0.0
2017-Nov-24 12:31N 37°57' E 023°33'0 0.0
2017-Nov-24 12:01N 37°57' E 023°33'0 0.0
2017-Nov-24 11:31N 37°57' E 023°33'0 0.0
2017-Nov-24 11:00N 37°57' E 023°33'0 0.0
2017-Nov-24 10:31N 37°57' E 023°33'  

Dump ship's entire track history